sensor_id;sensor_type;location;lat;lon;timestamp;pressure;altitude;pressure_sealevel;temperature;humidity
77062;BME280;65989;51.686;5.138;2023-04-24T00:02:02;100070.22;;;8.90;94.76
77062;BME280;65989;51.686;5.138;2023-04-24T00:04:29;100070.50;;;8.93;94.80
77062;BME280;65989;51.686;5.138;2023-04-24T00:06:54;100066.78;;;8.94;94.88
77062;BME280;65989;51.686;5.138;2023-04-24T00:09:22;100071.03;;;8.95;94.92
77062;BME280;65989;51.686;5.138;2023-04-24T00:11:48;100077.63;;;8.98;94.90
77062;BME280;65989;51.686;5.138;2023-04-24T00:14:13;100080.28;;;8.98;95.00
77062;BME280;65989;51.686;5.138;2023-04-24T00:16:39;100077.09;;;8.96;95.01
77062;BME280;65989;51.686;5.138;2023-04-24T00:19:04;100068.66;;;8.94;95.08
77062;BME280;65989;51.686;5.138;2023-04-24T00:21:31;100078.16;;;8.95;95.03
77062;BME280;65989;51.686;5.138;2023-04-24T00:23:58;100083.44;;;8.90;95.02
77062;BME280;65989;51.686;5.138;2023-04-24T00:26:23;100077.63;;;8.93;94.92
77062;BME280;65989;51.686;5.138;2023-04-24T00:28:48;100085.28;;;8.89;95.14
77062;BME280;65989;51.686;5.138;2023-04-24T00:31:14;100084.19;;;8.85;94.99
77062;BME280;65989;51.686;5.138;2023-04-24T00:33:39;100084.19;;;8.80;95.19
77062;BME280;65989;51.686;5.138;2023-04-24T00:36:05;100078.63;;;8.76;95.07
77062;BME280;65989;51.686;5.138;2023-04-24T00:38:31;100079.44;;;8.77;95.36
77062;BME280;65989;51.686;5.138;2023-04-24T00:40:56;100076.81;;;8.77;95.26
77062;BME280;65989;51.686;5.138;2023-04-24T00:43:22;100074.69;;;8.74;95.24
77062;BME280;65989;51.686;5.138;2023-04-24T00:45:47;100083.13;;;8.76;95.54
77062;BME280;65989;51.686;5.138;2023-04-24T00:48:13;100077.03;;;8.75;95.32
77062;BME280;65989;51.686;5.138;2023-04-24T00:50:38;100079.44;;;8.72;95.50
77062;BME280;65989;51.686;5.138;2023-04-24T00:53:04;100081.00;;;8.73;95.33
77062;BME280;65989;51.686;5.138;2023-04-24T00:55:30;100079.97;;;8.74;95.55
77062;BME280;65989;51.686;5.138;2023-04-24T00:57:56;100088.66;;;8.74;95.55
77062;BME280;65989;51.686;5.138;2023-04-24T01:00:22;100084.97;;;8.75;95.92
77062;BME280;65989;51.686;5.138;2023-04-24T01:02:48;100089.72;;;8.73;95.62
77062;BME280;65989;51.686;5.138;2023-04-24T01:05:15;100090.53;;;8.79;95.64
77062;BME280;65989;51.686;5.138;2023-04-24T01:07:44;100087.63;;;8.80;95.77
77062;BME280;65989;51.686;5.138;2023-04-24T01:10:11;100094.22;;;8.78;95.88
77062;BME280;65989;51.686;5.138;2023-04-24T01:12:38;100096.34;;;8.81;95.79
77062;BME280;65989;51.686;5.138;2023-04-24T01:15:03;100096.63;;;8.85;95.75
77062;BME280;65989;51.686;5.138;2023-04-24T01:17:29;100084.19;;;8.80;95.75
77062;BME280;65989;51.686;5.138;2023-04-24T01:19:54;100081.81;;;8.78;95.77
77062;BME280;65989;51.686;5.138;2023-04-24T01:22:22;100078.91;;;8.75;95.77
77062;BME280;65989;51.686;5.138;2023-04-24T01:24:47;100095.81;;;8.79;96.05
77062;BME280;65989;51.686;5.138;2023-04-24T01:27:13;100095.28;;;8.77;95.86
77062;BME280;65989;51.686;5.138;2023-04-24T01:29:38;100092.91;;;8.75;96.26
77062;BME280;65989;51.686;5.138;2023-04-24T01:32:05;100086.84;;;8.75;96.19
77062;BME280;65989;51.686;5.138;2023-04-24T01:34:31;100085.78;;;8.76;96.09
77062;BME280;65989;51.686;5.138;2023-04-24T01:36:57;100081.56;;;8.75;95.75
77062;BME280;65989;51.686;5.138;2023-04-24T01:39:23;100088.41;;;8.76;96.26
77062;BME280;65989;51.686;5.138;2023-04-24T01:41:51;100087.63;;;8.75;96.23
77062;BME280;65989;51.686;5.138;2023-04-24T01:44:17;100090.00;;;8.77;96.21
77062;BME280;65989;51.686;5.138;2023-04-24T01:46:43;100086.56;;;8.76;96.26
77062;BME280;65989;51.686;5.138;2023-04-24T01:49:08;100089.19;;;8.76;96.15
77062;BME280;65989;51.686;5.138;2023-04-24T01:51:34;100089.19;;;8.76;96.00
77062;BME280;65989;51.686;5.138;2023-04-24T01:53:59;100093.44;;;8.77;96.16
77062;BME280;65989;51.686;5.138;2023-04-24T01:56:25;100094.75;;;8.75;96.17
77062;BME280;65989;51.686;5.138;2023-04-24T01:58:52;100083.38;;;8.74;96.28
77062;BME280;65989;51.686;5.138;2023-04-24T02:01:19;100089.19;;;8.76;95.99
77062;BME280;65989;51.686;5.138;2023-04-24T02:03:45;100086.03;;;8.74;96.24
77062;BME280;65989;51.686;5.138;2023-04-24T02:06:11;100096.59;;;8.74;96.21
77062;BME280;65989;51.686;5.138;2023-04-24T02:08:36;100085.75;;;8.71;96.29
77062;BME280;65989;51.686;5.138;2023-04-24T02:11:02;100093.91;;;8.69;96.14
77062;BME280;65989;51.686;5.138;2023-04-24T02:13:27;100100.00;;;8.70;96.27
77062;BME280;65989;51.686;5.138;2023-04-24T02:15:53;100102.38;;;8.71;96.14
77062;BME280;65989;51.686;5.138;2023-04-24T02:18:18;100106.06;;;8.70;95.91
77062;BME280;65989;51.686;5.138;2023-04-24T02:20:44;100100.00;;;8.70;95.96
77062;BME280;65989;51.686;5.138;2023-04-24T02:23:09;100100.25;;;8.68;96.24
77062;BME280;65989;51.686;5.138;2023-04-24T02:25:34;100108.19;;;8.68;96.13
77062;BME280;65989;51.686;5.138;2023-04-24T02:28:00;100098.13;;;8.65;96.17
77062;BME280;65989;51.686;5.138;2023-04-24T02:30:25;100092.59;;;8.61;96.03
77062;BME280;65989;51.686;5.138;2023-04-24T02:32:51;100096.53;;;8.64;96.03
77062;BME280;65989;51.686;5.138;2023-04-24T02:35:16;100098.66;;;8.62;95.96
77062;BME280;65989;51.686;5.138;2023-04-24T02:37:42;100092.00;;;8.54;96.10
77062;BME280;65989;51.686;5.138;2023-04-24T02:40:08;100088.31;;;8.55;96.14
77062;BME280;65989;51.686;5.138;2023-04-24T02:42:34;100097.81;;;8.51;96.19
77062;BME280;65989;51.686;5.138;2023-04-24T02:45:00;100087.78;;;8.53;95.98
77062;BME280;65989;51.686;5.138;2023-04-24T02:47:25;100088.56;;;8.48;95.94
77062;BME280;65989;51.686;5.138;2023-04-24T02:49:50;100085.34;;;8.46;95.98
77062;BME280;65989;51.686;5.138;2023-04-24T02:52:16;100077.69;;;8.45;96.11
77062;BME280;65989;51.686;5.138;2023-04-24T02:54:42;100083.22;;;8.43;96.02
77062;BME280;65989;51.686;5.138;2023-04-24T02:57:08;100075.28;;;8.38;96.08
77062;BME280;65989;51.686;5.138;2023-04-24T02:59:33;100068.94;;;8.39;96.05
77062;BME280;65989;51.686;5.138;2023-04-24T03:01:59;100078.44;;;8.35;95.80
77062;BME280;65989;51.686;5.138;2023-04-24T03:04:24;100065.75;;;8.32;95.89
77062;BME280;65989;51.686;5.138;2023-04-24T03:06:50;100068.38;;;8.27;95.77
77062;BME280;65989;51.686;5.138;2023-04-24T03:09:18;100071.03;;;8.27;95.79
77062;BME280;65989;51.686;5.138;2023-04-24T03:11:43;100065.72;;;8.21;96.00
77062;BME280;65989;51.686;5.138;2023-04-24T03:14:09;100058.03;;;8.20;95.81
77062;BME280;65989;51.686;5.138;2023-04-24T03:16:34;100068.56;;;8.15;95.90
77062;BME280;65989;51.686;5.138;2023-04-24T03:19:00;100062.00;;;8.17;95.79
77062;BME280;65989;51.686;5.138;2023-04-24T03:21:25;100069.88;;;8.12;95.97
77062;BME280;65989;51.686;5.138;2023-04-24T03:23:51;100062.22;;;8.11;95.65
77062;BME280;65989;51.686;5.138;2023-04-24T03:26:17;100068.56;;;8.10;95.81
77062;BME280;65989;51.686;5.138;2023-04-24T03:28:42;100062.19;;;8.05;95.48
77062;BME280;65989;51.686;5.138;2023-04-24T03:31:08;100053.47;;;8.05;95.80
77062;BME280;65989;51.686;5.138;2023-04-24T03:33:33;100057.66;;;8.01;95.68
77062;BME280;65989;51.686;5.138;2023-04-24T03:35:58;100060.03;;;7.97;95.80
77062;BME280;65989;51.686;5.138;2023-04-24T03:38:24;100057.63;;;7.96;95.74
77062;BME280;65989;51.686;5.138;2023-04-24T03:40:49;100055.53;;;7.98;95.80
77062;BME280;65989;51.686;5.138;2023-04-24T03:43:15;100051.56;;;7.95;95.81
77062;BME280;65989;51.686;5.138;2023-04-24T03:45:40;100046.84;;;7.97;95.76
77062;BME280;65989;51.686;5.138;2023-04-24T03:48:05;100048.16;;;7.95;95.80
77062;BME280;65989;51.686;5.138;2023-04-24T03:50:31;100043.16;;;7.98;95.72
77062;BME280;65989;51.686;5.138;2023-04-24T03:52:56;100054.25;;;8.00;95.77
77062;BME280;65989;51.686;5.138;2023-04-24T03:55:22;100054.47;;;7.99;95.90
77062;BME280;65989;51.686;5.138;2023-04-24T03:57:47;100050.03;;;7.99;95.63
77062;BME280;65989;51.686;5.138;2023-04-24T04:00:13;100059.75;;;7.99;95.75
77062;BME280;65989;51.686;5.138;2023-04-24T04:02:39;100070.31;;;7.94;95.85
77062;BME280;65989;51.686;5.138;2023-04-24T04:05:04;100062.66;;;7.97;95.82
77062;BME280;65989;51.686;5.138;2023-04-24T04:07:30;100059.75;;;7.99;95.80
77062;BME280;65989;51.686;5.138;2023-04-24T04:09:55;100069.03;;;8.01;95.74
77062;BME280;65989;51.686;5.138;2023-04-24T04:12:21;100076.13;;;8.01;95.90
77062;BME280;65989;51.686;5.138;2023-04-24T04:14:46;100074.03;;;8.03;95.76
77062;BME280;65989;51.686;5.138;2023-04-24T04:17:11;100076.97;;;8.06;96.04
77062;BME280;65989;51.686;5.138;2023-04-24T04:19:37;100082.00;;;8.08;96.06
77062;BME280;65989;51.686;5.138;2023-04-24T04:22:02;100088.06;;;8.09;96.11
77062;BME280;65989;51.686;5.138;2023-04-24T04:24:27;100093.09;;;8.10;96.24
77062;BME280;65989;51.686;5.138;2023-04-24T04:26:53;100089.94;;;8.13;96.26
77062;BME280;65989;51.686;5.138;2023-04-24T04:29:22;100101.28;;;8.14;96.24
77062;BME280;65989;51.686;5.138;2023-04-24T04:31:47;100094.16;;;8.14;96.38
77062;BME280;65989;51.686;5.138;2023-04-24T04:34:13;100096.53;;;8.16;96.23
77062;BME280;65989;51.686;5.138;2023-04-24T04:36:40;100100.78;;;8.17;96.51
77062;BME280;65989;51.686;5.138;2023-04-24T04:39:06;100101.03;;;8.15;96.56
77062;BME280;65989;51.686;5.138;2023-04-24T04:41:32;100097.03;;;8.13;96.58
77062;BME280;65989;51.686;5.138;2023-04-24T04:44:00;100099.72;;;8.18;96.59
77062;BME280;65989;51.686;5.138;2023-04-24T04:46:25;100094.19;;;8.19;96.85
77062;BME280;65989;51.686;5.138;2023-04-24T04:48:52;100102.13;;;8.19;96.69
77062;BME280;65989;51.686;5.138;2023-04-24T04:51:18;100105.53;;;8.20;97.02
77062;BME280;65989;51.686;5.138;2023-04-24T04:53:43;100094.19;;;8.19;96.86
77062;BME280;65989;51.686;5.138;2023-04-24T04:56:08;100097.91;;;8.18;96.98
77062;BME280;65989;51.686;5.138;2023-04-24T04:58:34;100103.41;;;8.17;96.96
77062;BME280;65989;51.686;5.138;2023-04-24T05:00:59;100109.72;;;8.16;96.97
77062;BME280;65989;51.686;5.138;2023-04-24T05:03:24;100111.06;;;8.13;97.02
77062;BME280;65989;51.686;5.138;2023-04-24T05:05:50;100113.19;;;8.16;97.12
77062;BME280;65989;51.686;5.138;2023-04-24T05:08:15;100108.44;;;8.18;97.21
77062;BME280;65989;51.686;5.138;2023-04-24T05:10:41;100116.91;;;8.20;97.40
77062;BME280;65989;51.686;5.138;2023-04-24T05:13:06;100115.03;;;8.21;97.35
77062;BME280;65989;51.686;5.138;2023-04-24T05:15:32;100132.47;;;8.22;97.47
77062;BME280;65989;51.686;5.138;2023-04-24T05:17:57;100139.63;;;8.21;97.39
77062;BME280;65989;51.686;5.138;2023-04-24T05:20:23;100156.22;;;8.22;97.40
77062;BME280;65989;51.686;5.138;2023-04-24T05:22:48;100165.50;;;8.25;97.34
77062;BME280;65989;51.686;5.138;2023-04-24T05:25:13;100164.97;;;8.22;97.58
77062;BME280;65989;51.686;5.138;2023-04-24T05:27:40;100163.38;;;8.21;97.58
77062;BME280;65989;51.686;5.138;2023-04-24T05:30:06;100171.81;;;8.24;97.75
77062;BME280;65989;51.686;5.138;2023-04-24T05:32:31;100175.56;;;8.28;97.75
77062;BME280;65989;51.686;5.138;2023-04-24T05:34:57;100181.88;;;8.27;97.88
77062;BME280;65989;51.686;5.138;2023-04-24T05:37:22;100188.75;;;8.33;98.20
77062;BME280;65989;51.686;5.138;2023-04-24T05:39:47;100186.66;;;8.35;98.17
77062;BME280;65989;51.686;5.138;2023-04-24T05:42:13;100190.91;;;8.36;98.15
77062;BME280;65989;51.686;5.138;2023-04-24T05:44:38;100188.81;;;8.38;98.14
77062;BME280;65989;51.686;5.138;2023-04-24T05:47:04;100195.66;;;8.39;98.32
77062;BME280;65989;51.686;5.138;2023-04-24T05:49:29;100201.22;;;8.37;98.65
77062;BME280;65989;51.686;5.138;2023-04-24T05:51:54;100207.28;;;8.38;98.63
77062;BME280;65989;51.686;5.138;2023-04-24T05:54:20;100208.88;;;8.39;98.79
77062;BME280;65989;51.686;5.138;2023-04-24T05:56:45;100224.72;;;8.39;98.74
77062;BME280;65989;51.686;5.138;2023-04-24T05:59:11;100217.34;;;8.41;98.78
77062;BME280;65989;51.686;5.138;2023-04-24T06:01:36;100220.53;;;8.43;99.08
77062;BME280;65989;51.686;5.138;2023-04-24T06:04:03;100239.50;;;8.40;99.01
77062;BME280;65989;51.686;5.138;2023-04-24T06:06:29;100245.06;;;8.39;98.96
77062;BME280;65989;51.686;5.138;2023-04-24T06:08:54;100241.88;;;8.36;98.95
77062;BME280;65989;51.686;5.138;2023-04-24T06:11:20;100255.56;;;8.33;99.07
77062;BME280;65989;51.686;5.138;2023-04-24T06:13:46;100259.00;;;8.34;98.90
77062;BME280;65989;51.686;5.138;2023-04-24T06:16:11;100268.44;;;8.25;98.60
77062;BME280;65989;51.686;5.138;2023-04-24T06:18:37;100289.56;;;8.25;98.59
77062;BME280;65989;51.686;5.138;2023-04-24T06:21:02;100289.75;;;8.18;98.69
77062;BME280;65989;51.686;5.138;2023-04-24T06:23:27;100293.91;;;8.14;98.52
77062;BME280;65989;51.686;5.138;2023-04-24T06:25:53;100312.09;;;8.10;98.74
77062;BME280;65989;51.686;5.138;2023-04-24T06:28:18;100313.97;;;8.10;98.71
77062;BME280;65989;51.686;5.138;2023-04-24T06:30:44;100326.91;;;8.11;98.48
77062;BME280;65989;51.686;5.138;2023-04-24T06:33:09;100335.59;;;8.12;98.29
77062;BME280;65989;51.686;5.138;2023-04-24T06:35:35;100349.88;;;8.11;98.55
77062;BME280;65989;51.686;5.138;2023-04-24T06:38:01;100360.41;;;8.11;98.50
77062;BME280;65989;51.686;5.138;2023-04-24T06:40:26;100366.19;;;8.07;98.42
77062;BME280;65989;51.686;5.138;2023-04-24T06:42:52;100374.34;;;8.06;98.34
77062;BME280;65989;51.686;5.138;2023-04-24T06:45:18;100391.47;;;8.03;98.40
77062;BME280;65989;51.686;5.138;2023-04-24T06:47:43;100381.16;;;8.02;98.14
77062;BME280;65989;51.686;5.138;2023-04-24T06:50:09;100396.88;;;7.91;97.95
77062;BME280;65989;51.686;5.138;2023-04-24T06:52:34;100396.75;;;7.81;98.26
77062;BME280;65989;51.686;5.138;2023-04-24T06:55:01;100409.69;;;7.83;98.00
77062;BME280;65989;51.686;5.138;2023-04-24T06:57:28;100401.41;;;7.74;97.92
77062;BME280;65989;51.686;5.138;2023-04-24T06:59:53;100418.63;;;7.82;98.14
77062;BME280;65989;51.686;5.138;2023-04-24T07:02:18;100428.69;;;7.85;98.08
77062;BME280;65989;51.686;5.138;2023-04-24T07:04:45;100431.09;;;7.86;98.14
77062;BME280;65989;51.686;5.138;2023-04-24T07:07:12;100432.94;;;7.86;98.10
77062;BME280;65989;51.686;5.138;2023-04-24T07:09:39;100445.00;;;7.82;98.22
77062;BME280;65989;51.686;5.138;2023-04-24T07:12:08;100440.63;;;7.87;98.41
77062;BME280;65989;51.686;5.138;2023-04-24T07:14:33;100447.72;;;7.87;98.26
77062;BME280;65989;51.686;5.138;2023-04-24T07:16:59;100463.88;;;7.90;98.16
77062;BME280;65989;51.686;5.138;2023-04-24T07:19:24;100471.22;;;7.88;98.28
77062;BME280;65989;51.686;5.138;2023-04-24T07:21:49;100482.00;;;7.87;98.05
77062;BME280;65989;51.686;5.138;2023-04-24T07:24:15;100483.06;;;7.86;98.15
77062;BME280;65989;51.686;5.138;2023-04-24T07:26:40;100495.47;;;7.85;98.04
77062;BME280;65989;51.686;5.138;2023-04-24T07:29:06;100499.69;;;7.86;97.93
77062;BME280;65989;51.686;5.138;2023-04-24T07:31:32;100505.53;;;7.88;98.19
77062;BME280;65989;51.686;5.138;2023-04-24T07:33:58;100500.75;;;7.85;98.08
77062;BME280;65989;51.686;5.138;2023-04-24T07:36:23;100510.31;;;7.91;98.05
77062;BME280;65989;51.686;5.138;2023-04-24T07:38:49;100520.53;;;7.88;98.07
77062;BME280;65989;51.686;5.138;2023-04-24T07:41:15;100520.31;;;7.89;97.90
77062;BME280;65989;51.686;5.138;2023-04-24T07:43:41;100531.47;;;7.97;98.09
77062;BME280;65989;51.686;5.138;2023-04-24T07:46:09;100536.03;;;8.01;98.16
77062;BME280;65989;51.686;5.138;2023-04-24T07:48:35;100541.53;;;8.00;98.18
77062;BME280;65989;51.686;5.138;2023-04-24T07:51:00;100545.84;;;8.06;97.98
77062;BME280;65989;51.686;5.138;2023-04-24T07:53:26;100550.91;;;8.07;98.25
77062;BME280;65989;51.686;5.138;2023-04-24T07:55:51;100541.00;;;7.98;97.86
77062;BME280;65989;51.686;5.138;2023-04-24T07:58:16;100552.59;;;7.97;98.02
77062;BME280;65989;51.686;5.138;2023-04-24T08:00:42;100557.56;;;7.93;98.02
77062;BME280;65989;51.686;5.138;2023-04-24T08:03:07;100569.22;;;7.97;98.03
77062;BME280;65989;51.686;5.138;2023-04-24T08:05:33;100572.44;;;7.99;98.11
77062;BME280;65989;51.686;5.138;2023-04-24T08:07:58;100584.81;;;7.99;98.01
77062;BME280;65989;51.686;5.138;2023-04-24T08:10:24;100592.16;;;7.97;98.10
77062;BME280;65989;51.686;5.138;2023-04-24T08:12:50;100591.28;;;7.91;97.88
77062;BME280;65989;51.686;5.138;2023-04-24T08:15:16;100590.44;;;7.85;97.89
77062;BME280;65989;51.686;5.138;2023-04-24T08:17:42;100606.25;;;7.85;97.86
77062;BME280;65989;51.686;5.138;2023-04-24T08:20:10;100610.41;;;7.81;97.96
77062;BME280;65989;51.686;5.138;2023-04-24T08:22:39;100606.81;;;7.87;98.01
77062;BME280;65989;51.686;5.138;2023-04-24T08:25:05;100609.38;;;7.99;97.85
77062;BME280;65989;51.686;5.138;2023-04-24T08:27:31;100615.75;;;8.03;97.98
77062;BME280;65989;51.686;5.138;2023-04-24T08:29:57;100633.88;;;8.17;97.87
77062;BME280;65989;51.686;5.138;2023-04-24T08:32:23;100643.88;;;8.32;97.83
77062;BME280;65989;51.686;5.138;2023-04-24T08:34:49;100644.28;;;8.41;98.00
77062;BME280;65989;51.686;5.138;2023-04-24T08:37:15;100652.00;;;8.47;97.75
77062;BME280;65989;51.686;5.138;2023-04-24T08:39:40;100652.13;;;8.52;97.67
77062;BME280;65989;51.686;5.138;2023-04-24T08:42:05;100650.34;;;8.41;97.51
77062;BME280;65989;51.686;5.138;2023-04-24T08:44:33;100674.28;;;8.34;97.30
77062;BME280;65989;51.686;5.138;2023-04-24T08:47:01;100666.13;;;8.19;97.10
77062;BME280;65989;51.686;5.138;2023-04-24T08:49:28;100672.88;;;8.10;96.81
77062;BME280;65989;51.686;5.138;2023-04-24T08:51:54;100669.19;;;8.11;96.67
77062;BME280;65989;51.686;5.138;2023-04-24T08:54:20;100670.75;;;8.12;96.44
77062;BME280;65989;51.686;5.138;2023-04-24T08:56:48;100672.22;;;8.19;96.56
77062;BME280;65989;51.686;5.138;2023-04-24T08:59:16;100673.91;;;8.26;95.92
77062;BME280;65989;51.686;5.138;2023-04-24T09:01:45;100680.03;;;8.31;95.83
77062;BME280;65989;51.686;5.138;2023-04-24T09:04:12;100691.63;;;8.47;95.63
77062;BME280;65989;51.686;5.138;2023-04-24T09:06:40;100684.09;;;8.56;95.37
77062;BME280;65989;51.686;5.138;2023-04-24T09:09:06;100685.38;;;8.71;95.15
77062;BME280;65989;51.686;5.138;2023-04-24T09:11:32;100693.63;;;8.96;94.86
77062;BME280;65989;51.686;5.138;2023-04-24T09:14:01;100709.78;;;9.00;94.47
77062;BME280;65989;51.686;5.138;2023-04-24T09:16:27;100711.34;;;8.79;93.88
77062;BME280;65989;51.686;5.138;2023-04-24T09:18:52;100712.94;;;8.58;93.63
77062;BME280;65989;51.686;5.138;2023-04-24T09:21:21;100712.03;;;8.35;93.09
77062;BME280;65989;51.686;5.138;2023-04-24T09:23:57;100717.16;;;8.25;93.37
77062;BME280;65989;51.686;5.138;2023-04-24T09:26:23;100713.50;;;8.26;93.20
77062;BME280;65989;51.686;5.138;2023-04-24T09:28:49;100724.09;;;8.14;93.20
77062;BME280;65989;51.686;5.138;2023-04-24T09:31:18;100727.72;;;8.07;93.06
77062;BME280;65989;51.686;5.138;2023-04-24T09:36:19;100732.66;;;8.04;93.07
77062;BME280;65989;51.686;5.138;2023-04-24T09:38:44;100745.28;;;8.02;92.92
77062;BME280;65989;51.686;5.138;2023-04-24T09:41:13;100757.91;;;8.00;92.90
77062;BME280;65989;51.686;5.138;2023-04-24T09:43:39;100751.47;;;8.07;93.07
77062;BME280;65989;51.686;5.138;2023-04-24T09:46:07;100745.88;;;8.21;92.49
77062;BME280;65989;51.686;5.138;2023-04-24T09:48:35;100771.59;;;8.60;92.62
77062;BME280;65989;51.686;5.138;2023-04-24T09:51:02;100759.16;;;8.77;92.20
77062;BME280;65989;51.686;5.138;2023-04-24T09:53:29;100765.09;;;8.85;91.67
77062;BME280;65989;51.686;5.138;2023-04-24T09:55:55;100766.31;;;8.77;91.28
77062;BME280;65989;51.686;5.138;2023-04-24T09:58:25;100769.56;;;8.84;91.07
77062;BME280;65989;51.686;5.138;2023-04-24T10:00:54;100776.69;;;8.84;90.56
77062;BME280;65989;51.686;5.138;2023-04-24T10:03:20;100780.22;;;8.72;90.25
77062;BME280;65989;51.686;5.138;2023-04-24T10:05:47;100779.84;;;8.63;90.25
77062;BME280;65989;51.686;5.138;2023-04-24T10:08:12;100789.66;;;8.51;90.01
77062;BME280;65989;51.686;5.138;2023-04-24T10:10:42;100789.50;;;8.41;89.66
77062;BME280;65989;51.686;5.138;2023-04-24T10:13:12;100796.94;;;8.27;89.42
77062;BME280;65989;51.686;5.138;2023-04-24T10:15:39;100809.69;;;8.18;89.15
77062;BME280;65989;51.686;5.138;2023-04-24T10:18:06;100803.63;;;8.17;89.17
77062;BME280;65989;51.686;5.138;2023-04-24T10:20:32;100808.69;;;8.36;89.27
77062;BME280;65989;51.686;5.138;2023-04-24T10:22:59;100815.13;;;8.74;89.09
77062;BME280;65989;51.686;5.138;2023-04-24T10:25:30;100809.78;;;9.08;88.62
77062;BME280;65989;51.686;5.138;2023-04-24T10:27:56;100813.94;;;9.44;87.99
77062;BME280;65989;51.686;5.138;2023-04-24T10:30:27;100817.31;;;9.61;86.99
77062;BME280;65989;51.686;5.138;2023-04-24T10:32:52;100829.00;;;9.65;86.33
77062;BME280;65989;51.686;5.138;2023-04-24T10:35:18;100827.91;;;9.61;85.85
77062;BME280;65989;51.686;5.138;2023-04-24T10:37:59;100824.81;;;9.47;85.27
77062;BME280;65989;51.686;5.138;2023-04-24T10:40:30;100818.88;;;9.35;85.12
77062;BME280;65989;51.686;5.138;2023-04-24T10:42:56;100826.38;;;9.21;84.37
77062;BME280;65989;51.686;5.138;2023-04-24T10:45:23;100833.81;;;9.24;84.54
77062;BME280;65989;51.686;5.138;2023-04-24T10:50:27;100826.97;;;9.28;84.31
77062;BME280;65989;51.686;5.138;2023-04-24T10:52:53;100827.91;;;9.61;83.99
77062;BME280;65989;51.686;5.138;2023-04-24T10:58:07;100831.97;;;10.46;82.80
77062;BME280;65989;51.686;5.138;2023-04-24T11:00:36;100837.47;;;10.72;81.84
77062;BME280;65989;51.686;5.138;2023-04-24T11:03:05;100830.97;;;10.90;80.80
77062;BME280;65989;51.686;5.138;2023-04-24T11:06:09;100842.22;;;11.13;80.40
77062;BME280;65989;51.686;5.138;2023-04-24T11:09:01;100838.78;;;11.12;79.79
77062;BME280;65989;51.686;5.138;2023-04-24T11:11:30;100845.47;;;10.77;78.46
77062;BME280;65989;51.686;5.138;2023-04-24T11:27:15;100866.91;;;9.49;79.72
77062;BME280;65989;51.686;5.138;2023-04-24T11:32:38;100881.41;;;9.24;79.58
77062;BME280;65989;51.686;5.138;2023-04-24T11:35:14;100883.16;;;9.18;79.99
77062;BME280;65989;51.686;5.138;2023-04-24T11:37:51;100885.00;;;9.18;80.34
77062;BME280;65989;51.686;5.138;2023-04-24T11:40:18;100900.13;;;9.39;80.33
77062;BME280;65989;51.686;5.138;2023-04-24T11:42:52;100900.84;;;9.74;80.21
77062;BME280;65989;51.686;5.138;2023-04-24T11:45:21;100878.84;;;10.18;79.73
77062;BME280;65989;51.686;5.138;2023-04-24T11:47:47;100896.00;;;10.65;79.66
77062;BME280;65989;51.686;5.138;2023-04-24T11:50:14;100882.88;;;10.86;78.89
77062;BME280;65989;51.686;5.138;2023-04-24T11:52:40;100885.22;;;10.77;77.86
77062;BME280;65989;51.686;5.138;2023-04-24T11:57:45;100892.88;;;10.73;76.95
77062;BME280;65989;51.686;5.138;2023-04-24T12:02:44;100901.19;;;10.55;76.40
77062;BME280;65989;51.686;5.138;2023-04-24T12:05:24;100906.97;;;10.24;76.46
77062;BME280;65989;51.686;5.138;2023-04-24T12:07:51;100907.09;;;10.12;76.40
77062;BME280;65989;51.686;5.138;2023-04-24T12:10:25;100925.59;;;10.07;76.86
77062;BME280;65989;51.686;5.138;2023-04-24T12:12:51;100920.59;;;10.11;76.94
77062;BME280;65989;51.686;5.138;2023-04-24T12:15:18;100932.09;;;9.99;76.97
77062;BME280;65989;51.686;5.138;2023-04-24T12:17:44;100932.41;;;9.81;77.42
77062;BME280;65989;51.686;5.138;2023-04-24T12:20:10;100938.03;;;9.67;77.46
77062;BME280;65989;51.686;5.138;2023-04-24T12:23:02;100936.47;;;9.49;78.27
77062;BME280;65989;51.686;5.138;2023-04-24T12:25:29;100953.34;;;9.43;78.90
77062;BME280;65989;51.686;5.138;2023-04-24T12:28:16;100956.78;;;9.44;78.89
77062;BME280;65989;51.686;5.138;2023-04-24T12:30:48;100967.91;;;9.46;79.55
77062;BME280;65989;51.686;5.138;2023-04-24T12:33:21;100963.91;;;9.82;79.88
77062;BME280;65989;51.686;5.138;2023-04-24T12:35:48;100973.41;;;10.23;80.17
77062;BME280;65989;51.686;5.138;2023-04-24T12:38:16;100953.13;;;10.56;79.64
77062;BME280;65989;51.686;5.138;2023-04-24T12:40:46;100963.50;;;10.90;79.12
77062;BME280;65989;51.686;5.138;2023-04-24T12:43:19;100967.50;;;11.25;78.75
77062;BME280;65989;51.686;5.138;2023-04-24T12:45:45;100960.03;;;11.60;78.43
77062;BME280;65989;51.686;5.138;2023-04-24T12:48:11;100970.00;;;11.85;77.98
77062;BME280;65989;51.686;5.138;2023-04-24T12:50:37;100963.50;;;12.14;77.18
77062;BME280;65989;51.686;5.138;2023-04-24T12:53:03;100975.22;;;12.28;76.24
77062;BME280;65989;51.686;5.138;2023-04-24T12:55:28;100971.72;;;12.12;75.70
77062;BME280;65989;51.686;5.138;2023-04-24T12:57:54;100985.84;;;11.70;74.74
77062;BME280;65989;51.686;5.138;2023-04-24T13:00:20;100973.03;;;11.56;74.70
77062;BME280;65989;51.686;5.138;2023-04-24T13:02:46;100979.97;;;11.62;74.33
77062;BME280;65989;51.686;5.138;2023-04-24T13:05:11;100983.91;;;11.60;74.05
77062;BME280;65989;51.686;5.138;2023-04-24T13:07:39;100975.44;;;11.63;73.83
77062;BME280;65989;51.686;5.138;2023-04-24T13:10:05;100982.47;;;11.85;74.08
77062;BME280;65989;51.686;5.138;2023-04-24T13:12:31;100987.44;;;11.71;73.34
77062;BME280;65989;51.686;5.138;2023-04-24T13:14:57;100990.47;;;11.47;73.46
77062;BME280;65989;51.686;5.138;2023-04-24T13:17:22;100995.63;;;11.26;73.06
77062;BME280;65989;51.686;5.138;2023-04-24T13:19:49;101003.06;;;10.97;72.00
77062;BME280;65989;51.686;5.138;2023-04-24T13:22:16;101007.75;;;10.84;72.67
77062;BME280;65989;51.686;5.138;2023-04-24T13:24:42;101007.09;;;10.72;73.14
77062;BME280;65989;51.686;5.138;2023-04-24T13:27:08;101004.16;;;10.68;73.65